Avondale, Missouri
Current Conditions -  °F | °C
As of 9:54 PM on Tuesday 27 Jan 2015 (Local Time) from KMKC Reporting Station
Clear Clear  
Wind Chill:   Ceiling: Unl
Heat Index:   Visibility: 10mi
Dew Point: -1°   Wind: 6mph
Humidity: 65%   Direction: 70°ENE
Pressure: 30.08"   Gusts: NA
Location:  39.1657°N, 94.5231°W
Report Text: KMKC 280354Z 07005KT 10SM CLR 05/M01 A3008 RMK AO2 SLP190 T00501011
Loading
Personal Weather Stations






























Interactive Weather Map New forecast layout! Learn more

10-Day Weather Forecast

Advertisements
Track Severe Weather on mobile